sensor_id;sensor_type;location;lat;lon;timestamp;pressure;altitude;pressure_sealevel;temperature;humidity
55801;BME280;41730;51.960;20.158;2023-04-29T00:00:00;100071.70;;;8.66;52.04
55801;BME280;41730;51.960;20.158;2023-04-29T00:02:32;100062.83;;;8.50;52.36
55801;BME280;41730;51.960;20.158;2023-04-29T00:05:05;100062.05;;;8.60;52.35
55801;BME280;41730;51.960;20.158;2023-04-29T00:07:37;100063.80;;;8.73;51.86
55801;BME280;41730;51.960;20.158;2023-04-29T00:10:10;100062.20;;;8.60;52.14
55801;BME280;41730;51.960;20.158;2023-04-29T00:12:43;100062.52;;;8.51;52.48
55801;BME280;41730;51.960;20.158;2023-04-29T00:15:15;100064.83;;;8.42;52.54
55801;BME280;41730;51.960;20.158;2023-04-29T00:17:48;100065.79;;;8.26;52.92
55801;BME280;41730;51.960;20.158;2023-04-29T00:20:20;100066.34;;;8.19;53.01
55801;BME280;41730;51.960;20.158;2023-04-29T00:22:52;100061.65;;;8.28;53.04
55801;BME280;41730;51.960;20.158;2023-04-29T00:25:23;100061.01;;;8.32;52.93
55801;BME280;41730;51.960;20.158;2023-04-29T00:27:56;100064.45;;;8.42;52.59
55801;BME280;41730;51.960;20.158;2023-04-29T00:30:31;100062.96;;;8.44;52.72
55801;BME280;41730;51.960;20.158;2023-04-29T00:33:03;100063.30;;;8.42;52.90
55801;BME280;41730;51.960;20.158;2023-04-29T00:35:36;100062.54;;;8.32;52.83
55801;BME280;41730;51.960;20.158;2023-04-29T00:38:09;100062.83;;;8.36;52.92
55801;BME280;41730;51.960;20.158;2023-04-29T00:40:41;100061.44;;;8.24;53.04
55801;BME280;41730;51.960;20.158;2023-04-29T00:43:13;100060.24;;;8.21;53.45
55801;BME280;41730;51.960;20.158;2023-04-29T00:45:45;100060.23;;;8.09;53.54
55801;BME280;41730;51.960;20.158;2023-04-29T00:48:18;100059.57;;;8.00;53.66
55801;BME280;41730;51.960;20.158;2023-04-29T00:50:49;100057.95;;;7.98;53.90
55801;BME280;41730;51.960;20.158;2023-04-29T00:53:22;100053.33;;;8.16;53.61
55801;BME280;41730;51.960;20.158;2023-04-29T00:55:54;100051.66;;;8.24;53.27
55801;BME280;41730;51.960;20.158;2023-04-29T00:58:26;100055.89;;;8.05;53.87
55801;BME280;41730;51.960;20.158;2023-04-29T01:01:03;100054.45;;;7.98;53.92
55801;BME280;41730;51.960;20.158;2023-04-29T01:03:35;100054.13;;;8.26;53.40
55801;BME280;41730;51.960;20.158;2023-04-29T01:06:12;100049.83;;;8.46;53.10
55801;BME280;41730;51.960;20.158;2023-04-29T01:08:54;100046.97;;;8.40;53.13
55801;BME280;41730;51.960;20.158;2023-04-29T01:11:41;100045.02;;;8.26;53.30
55801;BME280;41730;51.960;20.158;2023-04-29T01:14:19;100049.95;;;8.16;53.36
55801;BME280;41730;51.960;20.158;2023-04-29T01:16:58;100049.48;;;8.09;53.53
55801;BME280;41730;51.960;20.158;2023-04-29T01:19:43;100046.65;;;8.02;53.67
55801;BME280;41730;51.960;20.158;2023-04-29T01:22:16;100048.83;;;7.99;53.98
55801;BME280;41730;51.960;20.158;2023-04-29T01:24:49;100047.77;;;7.97;54.19
55801;BME280;41730;51.960;20.158;2023-04-29T01:27:29;100045.73;;;8.03;53.89
55801;BME280;41730;51.960;20.158;2023-04-29T01:30:11;100042.55;;;8.15;53.88
55801;BME280;41730;51.960;20.158;2023-04-29T01:32:54;100042.64;;;8.23;53.55
55801;BME280;41730;51.960;20.158;2023-04-29T01:38:35;100043.58;;;8.10;53.63
55801;BME280;41730;51.960;20.158;2023-04-29T01:41:12;100038.02;;;8.10;53.83
55801;BME280;41730;51.960;20.158;2023-04-29T01:43:49;100037.43;;;8.09;53.88
55801;BME280;41730;51.960;20.158;2023-04-29T01:46:21;100041.09;;;8.20;53.76
55801;BME280;41730;51.960;20.158;2023-04-29T01:48:55;100035.44;;;8.26;53.60
55801;BME280;41730;51.960;20.158;2023-04-29T01:51:26;100042.06;;;8.24;53.58
55801;BME280;41730;51.960;20.158;2023-04-29T01:53:58;100041.19;;;8.38;53.40
55801;BME280;41730;51.960;20.158;2023-04-29T01:56:30;100038.45;;;8.51;53.03
55801;BME280;41730;51.960;20.158;2023-04-29T01:59:02;100038.02;;;8.54;53.14
55801;BME280;41730;51.960;20.158;2023-04-29T02:01:34;100036.51;;;8.51;53.14
55801;BME280;41730;51.960;20.158;2023-04-29T02:04:07;100038.55;;;8.50;52.90
55801;BME280;41730;51.960;20.158;2023-04-29T02:06:40;100040.89;;;8.44;53.26
55801;BME280;41730;51.960;20.158;2023-04-29T02:09:11;100037.19;;;8.30;53.80
55801;BME280;41730;51.960;20.158;2023-04-29T02:11:44;100032.40;;;8.36;53.53
55801;BME280;41730;51.960;20.158;2023-04-29T02:14:17;100031.45;;;8.28;53.70
55801;BME280;41730;51.960;20.158;2023-04-29T02:16:48;100029.15;;;8.12;54.04
55801;BME280;41730;51.960;20.158;2023-04-29T02:19:21;100031.09;;;8.12;54.17
55801;BME280;41730;51.960;20.158;2023-04-29T02:21:52;100028.11;;;8.07;54.13
55801;BME280;41730;51.960;20.158;2023-04-29T02:24:24;100026.30;;;7.97;54.37
55801;BME280;41730;51.960;20.158;2023-04-29T02:26:56;100024.50;;;8.00;54.45
55801;BME280;41730;51.960;20.158;2023-04-29T02:29:28;100018.73;;;8.04;54.35
55801;BME280;41730;51.960;20.158;2023-04-29T02:32:00;100023.99;;;7.97;54.57
55801;BME280;41730;51.960;20.158;2023-04-29T02:34:32;100016.50;;;8.13;54.23
55801;BME280;41730;51.960;20.158;2023-04-29T02:37:04;100017.33;;;8.30;53.71
55801;BME280;41730;51.960;20.158;2023-04-29T02:39:35;100018.09;;;8.41;53.36
55801;BME280;41730;51.960;20.158;2023-04-29T02:42:08;100025.22;;;8.31;53.51
55801;BME280;41730;51.960;20.158;2023-04-29T02:44:40;100026.45;;;8.15;54.01
55801;BME280;41730;51.960;20.158;2023-04-29T02:47:11;100022.02;;;8.02;54.29
55801;BME280;41730;51.960;20.158;2023-04-29T02:49:43;100017.44;;;8.03;54.38
55801;BME280;41730;51.960;20.158;2023-04-29T02:52:15;100019.11;;;7.92;54.46
55801;BME280;41730;51.960;20.158;2023-04-29T02:54:47;100012.88;;;7.87;54.60
55801;BME280;41730;51.960;20.158;2023-04-29T02:57:20;100009.30;;;7.95;54.50
55801;BME280;41730;51.960;20.158;2023-04-29T02:59:52;100015.27;;;7.78;54.79
55801;BME280;41730;51.960;20.158;2023-04-29T03:02:23;100012.80;;;7.67;55.03
55801;BME280;41730;51.960;20.158;2023-04-29T03:04:55;100010.38;;;7.69;55.14
55801;BME280;41730;51.960;20.158;2023-04-29T03:07:28;100014.63;;;7.92;54.62
55801;BME280;41730;51.960;20.158;2023-04-29T03:09:59;100009.84;;;7.76;54.94
55801;BME280;41730;51.960;20.158;2023-04-29T03:12:31;100006.40;;;7.68;55.04
55801;BME280;41730;51.960;20.158;2023-04-29T03:15:06;100004.77;;;7.72;54.85
55801;BME280;41730;51.960;20.158;2023-04-29T03:17:41;100006.13;;;7.60;55.24
55801;BME280;41730;51.960;20.158;2023-04-29T03:20:15;100005.64;;;7.57;55.32
55801;BME280;41730;51.960;20.158;2023-04-29T03:22:46;100004.01;;;7.63;55.11
55801;BME280;41730;51.960;20.158;2023-04-29T03:25:18;100003.36;;;7.60;55.23
55801;BME280;41730;51.960;20.158;2023-04-29T03:27:50;100002.24;;;7.58;55.24
55801;BME280;41730;51.960;20.158;2023-04-29T03:30:22;100005.55;;;7.70;55.00
55801;BME280;41730;51.960;20.158;2023-04-29T03:32:54;100012.81;;;7.62;55.22
55801;BME280;41730;51.960;20.158;2023-04-29T03:35:25;100009.06;;;7.68;55.05
55801;BME280;41730;51.960;20.158;2023-04-29T03:37:57;100010.42;;;7.68;54.94
55801;BME280;41730;51.960;20.158;2023-04-29T03:40:29;100015.11;;;7.71;55.23
55801;BME280;41730;51.960;20.158;2023-04-29T03:43:02;100011.17;;;7.72;55.30
55801;BME280;41730;51.960;20.158;2023-04-29T03:45:33;100011.59;;;7.69;55.09
55801;BME280;41730;51.960;20.158;2023-04-29T03:48:07;100011.12;;;7.59;55.34
55801;BME280;41730;51.960;20.158;2023-04-29T03:50:43;100015.16;;;7.67;55.23
55801;BME280;41730;51.960;20.158;2023-04-29T03:53:20;100010.40;;;7.71;55.13
55801;BME280;41730;51.960;20.158;2023-04-29T03:55:56;100010.76;;;7.68;55.24
55801;BME280;41730;51.960;20.158;2023-04-29T03:58:30;100011.99;;;7.68;55.45
55801;BME280;41730;51.960;20.158;2023-04-29T04:01:02;100008.72;;;7.91;55.15
55801;BME280;41730;51.960;20.158;2023-04-29T04:03:33;100005.32;;;7.92;55.07
55801;BME280;41730;51.960;20.158;2023-04-29T04:06:07;100007.31;;;8.05;55.15
55801;BME280;41730;51.960;20.158;2023-04-29T04:08:39;100007.48;;;8.14;54.97
55801;BME280;41730;51.960;20.158;2023-04-29T04:11:12;100006.15;;;8.46;54.56
55801;BME280;41730;51.960;20.158;2023-04-29T04:13:44;100007.61;;;8.77;54.15
55801;BME280;41730;51.960;20.158;2023-04-29T04:16:15;100012.20;;;8.76;53.98
55801;BME280;41730;51.960;20.158;2023-04-29T04:18:47;100006.45;;;8.63;54.32
55801;BME280;41730;51.960;20.158;2023-04-29T04:21:20;100007.27;;;8.59;54.45
55801;BME280;41730;51.960;20.158;2023-04-29T04:23:53;100001.80;;;8.57;54.54
55801;BME280;41730;51.960;20.158;2023-04-29T04:26:24;100001.94;;;8.73;54.31
55801;BME280;41730;51.960;20.158;2023-04-29T04:28:56;100004.27;;;8.78;54.37
55801;BME280;41730;51.960;20.158;2023-04-29T04:31:28;100004.90;;;8.78;54.90
55801;BME280;41730;51.960;20.158;2023-04-29T04:34:00;100004.46;;;8.77;55.13
55801;BME280;41730;51.960;20.158;2023-04-29T04:36:32;100002.86;;;8.97;54.77
55801;BME280;41730;51.960;20.158;2023-04-29T04:39:04;100005.48;;;9.26;54.33
55801;BME280;41730;51.960;20.158;2023-04-29T04:41:36;100003.81;;;9.44;53.95
55801;BME280;41730;51.960;20.158;2023-04-29T04:44:08;100004.69;;;9.49;54.08
55801;BME280;41730;51.960;20.158;2023-04-29T04:46:40;100000.17;;;9.52;53.63
55801;BME280;41730;51.960;20.158;2023-04-29T04:49:12;99998.81;;;9.43;53.72
55801;BME280;41730;51.960;20.158;2023-04-29T04:51:46;99995.58;;;9.42;53.71
55801;BME280;41730;51.960;20.158;2023-04-29T04:54:18;99997.06;;;9.45;53.64
55801;BME280;41730;51.960;20.158;2023-04-29T04:56:50;99998.73;;;9.53;53.56
55801;BME280;41730;51.960;20.158;2023-04-29T04:59:22;99993.50;;;9.52;54.41
55801;BME280;41730;51.960;20.158;2023-04-29T05:01:54;99987.27;;;9.80;54.51
55801;BME280;41730;51.960;20.158;2023-04-29T05:04:25;99984.55;;;10.20;54.20
55801;BME280;41730;51.960;20.158;2023-04-29T05:06:57;99985.50;;;10.49;53.74
55801;BME280;41730;51.960;20.158;2023-04-29T05:09:29;99987.25;;;10.85;53.49
55801;BME280;41730;51.960;20.158;2023-04-29T05:12:01;99983.77;;;11.42;52.97
55801;BME280;41730;51.960;20.158;2023-04-29T05:14:33;99983.08;;;11.75;51.91
55801;BME280;41730;51.960;20.158;2023-04-29T05:17:05;99981.95;;;11.90;52.01
55801;BME280;41730;51.960;20.158;2023-04-29T05:19:39;99981.96;;;12.01;51.83
55801;BME280;41730;51.960;20.158;2023-04-29T05:22:12;99976.94;;;12.23;51.44
55801;BME280;41730;51.960;20.158;2023-04-29T05:24:44;99972.61;;;12.42;50.77
55801;BME280;41730;51.960;20.158;2023-04-29T05:27:17;99970.39;;;12.52;50.20
55801;BME280;41730;51.960;20.158;2023-04-29T05:29:49;99971.59;;;12.48;49.59
55801;BME280;41730;51.960;20.158;2023-04-29T05:32:21;99972.54;;;12.38;49.57
55801;BME280;41730;51.960;20.158;2023-04-29T05:34:52;99973.80;;;12.29;49.58
55801;BME280;41730;51.960;20.158;2023-04-29T05:37:24;99976.38;;;12.37;49.08
55801;BME280;41730;51.960;20.158;2023-04-29T05:39:59;99973.46;;;12.36;49.24
55801;BME280;41730;51.960;20.158;2023-04-29T05:42:31;99974.08;;;12.41;48.76
55801;BME280;41730;51.960;20.158;2023-04-29T05:45:03;99975.60;;;12.28;49.10
55801;BME280;41730;51.960;20.158;2023-04-29T05:47:35;99973.83;;;12.23;49.03
55801;BME280;41730;51.960;20.158;2023-04-29T05:50:08;99970.16;;;12.24;49.06
55801;BME280;41730;51.960;20.158;2023-04-29T05:52:40;99976.63;;;12.19;49.14
55801;BME280;41730;51.960;20.158;2023-04-29T05:55:12;99973.14;;;12.23;49.52
55801;BME280;41730;51.960;20.158;2023-04-29T05:57:44;99970.58;;;12.31;49.29
55801;BME280;41730;51.960;20.158;2023-04-29T06:00:17;99972.16;;;12.68;48.64
55801;BME280;41730;51.960;20.158;2023-04-29T06:02:49;99967.23;;;12.96;48.41
55801;BME280;41730;51.960;20.158;2023-04-29T06:05:28;99968.08;;;13.13;48.09
55801;BME280;41730;51.960;20.158;2023-04-29T06:08:00;99970.99;;;13.26;47.84
55801;BME280;41730;51.960;20.158;2023-04-29T06:10:33;99965.67;;;13.41;47.89
55801;BME280;41730;51.960;20.158;2023-04-29T06:13:06;99964.20;;;13.67;47.74
55801;BME280;41730;51.960;20.158;2023-04-29T06:15:38;99966.91;;;13.82;47.27
55801;BME280;41730;51.960;20.158;2023-04-29T06:18:10;99961.27;;;13.92;47.46
55801;BME280;41730;51.960;20.158;2023-04-29T06:20:43;99959.11;;;14.19;46.71
55801;BME280;41730;51.960;20.158;2023-04-29T06:23:14;99956.13;;;14.33;46.67
55801;BME280;41730;51.960;20.158;2023-04-29T06:25:47;99961.25;;;14.50;46.68
55801;BME280;41730;51.960;20.158;2023-04-29T06:28:21;99959.96;;;14.59;45.95
55801;BME280;41730;51.960;20.158;2023-04-29T06:30:53;99959.95;;;14.69;45.96
55801;BME280;41730;51.960;20.158;2023-04-29T06:33:24;99965.72;;;14.89;45.84
55801;BME280;41730;51.960;20.158;2023-04-29T06:35:57;99966.08;;;14.94;45.41
55801;BME280;41730;51.960;20.158;2023-04-29T06:38:28;99960.83;;;15.00;45.25
55801;BME280;41730;51.960;20.158;2023-04-29T06:41:00;99962.34;;;14.97;45.17
55801;BME280;41730;51.960;20.158;2023-04-29T06:43:33;99964.58;;;14.95;45.37
55801;BME280;41730;51.960;20.158;2023-04-29T06:46:05;99965.22;;;14.99;45.53
55801;BME280;41730;51.960;20.158;2023-04-29T06:48:37;99961.09;;;14.99;45.26
55801;BME280;41730;51.960;20.158;2023-04-29T06:51:09;99957.11;;;14.98;44.73
55801;BME280;41730;51.960;20.158;2023-04-29T06:53:42;99954.97;;;15.14;44.48
55801;BME280;41730;51.960;20.158;2023-04-29T06:56:14;99949.19;;;15.32;44.26
55801;BME280;41730;51.960;20.158;2023-04-29T06:58:47;99946.92;;;15.56;43.71
55801;BME280;41730;51.960;20.158;2023-04-29T07:01:19;99947.55;;;15.73;42.84
55801;BME280;41730;51.960;20.158;2023-04-29T07:03:51;99948.11;;;15.78;43.05
55801;BME280;41730;51.960;20.158;2023-04-29T07:06:23;99942.23;;;16.06;43.28
55801;BME280;41730;51.960;20.158;2023-04-29T07:08:56;99944.59;;;16.29;43.20
55801;BME280;41730;51.960;20.158;2023-04-29T07:11:27;99938.34;;;16.67;42.74
55801;BME280;41730;51.960;20.158;2023-04-29T07:13:59;99939.60;;;17.14;42.03
55801;BME280;41730;51.960;20.158;2023-04-29T07:16:30;99935.77;;;17.28;41.50
55801;BME280;41730;51.960;20.158;2023-04-29T07:19:03;99936.89;;;17.43;41.14
55801;BME280;41730;51.960;20.158;2023-04-29T07:21:34;99939.61;;;17.44;41.27
55801;BME280;41730;51.960;20.158;2023-04-29T07:24:07;99937.30;;;17.45;40.85
55801;BME280;41730;51.960;20.158;2023-04-29T07:26:39;99939.23;;;17.53;40.94
55801;BME280;41730;51.960;20.158;2023-04-29T07:29:13;99931.88;;;17.71;40.82
55801;BME280;41730;51.960;20.158;2023-04-29T07:31:44;99926.45;;;17.94;40.93
55801;BME280;41730;51.960;20.158;2023-04-29T07:34:17;99927.98;;;18.19;40.47
55801;BME280;41730;51.960;20.158;2023-04-29T07:36:51;99926.44;;;18.30;40.43
55801;BME280;41730;51.960;20.158;2023-04-29T07:39:22;99925.91;;;18.49;38.93
55801;BME280;41730;51.960;20.158;2023-04-29T07:41:55;99927.05;;;18.52;38.52
55801;BME280;41730;51.960;20.158;2023-04-29T07:44:27;99924.70;;;18.48;39.16
55801;BME280;41730;51.960;20.158;2023-04-29T07:47:00;99924.80;;;18.54;38.95
55801;BME280;41730;51.960;20.158;2023-04-29T07:49:32;99924.60;;;18.78;38.51
55801;BME280;41730;51.960;20.158;2023-04-29T07:52:05;99925.34;;;19.04;38.24
55801;BME280;41730;51.960;20.158;2023-04-29T07:54:39;99925.50;;;18.96;38.58
55801;BME280;41730;51.960;20.158;2023-04-29T07:57:11;99928.48;;;19.02;37.82
55801;BME280;41730;51.960;20.158;2023-04-29T07:59:43;99928.98;;;18.89;38.12
55801;BME280;41730;51.960;20.158;2023-04-29T08:02:17;99930.29;;;18.77;38.31
55801;BME280;41730;51.960;20.158;2023-04-29T08:04:49;99937.81;;;18.70;38.37
55801;BME280;41730;51.960;20.158;2023-04-29T08:07:24;99935.73;;;18.65;38.33
55801;BME280;41730;51.960;20.158;2023-04-29T08:09:57;99938.13;;;18.53;38.87
55801;BME280;41730;51.960;20.158;2023-04-29T08:12:28;99942.55;;;18.47;39.11
55801;BME280;41730;51.960;20.158;2023-04-29T08:15:00;99941.34;;;18.42;39.46
55801;BME280;41730;51.960;20.158;2023-04-29T08:17:34;99935.22;;;18.59;39.27
55801;BME280;41730;51.960;20.158;2023-04-29T08:20:08;99940.90;;;18.80;39.00
55801;BME280;41730;51.960;20.158;2023-04-29T08:22:41;99935.48;;;18.85;39.07
55801;BME280;41730;51.960;20.158;2023-04-29T08:25:14;99940.68;;;18.96;38.66
55801;BME280;41730;51.960;20.158;2023-04-29T08:27:46;99940.67;;;19.07;38.11
55801;BME280;41730;51.960;20.158;2023-04-29T08:30:19;99939.70;;;18.97;38.42
55801;BME280;41730;51.960;20.158;2023-04-29T08:32:50;99939.06;;;18.98;38.59
55801;BME280;41730;51.960;20.158;2023-04-29T08:35:24;99933.97;;;19.16;38.49
55801;BME280;41730;51.960;20.158;2023-04-29T08:37:56;99929.50;;;19.09;38.79
55801;BME280;41730;51.960;20.158;2023-04-29T08:40:28;99925.06;;;19.01;39.00
55801;BME280;41730;51.960;20.158;2023-04-29T08:43:00;99926.17;;;18.96;39.21
55801;BME280;41730;51.960;20.158;2023-04-29T08:45:33;99927.98;;;19.03;38.49
55801;BME280;41730;51.960;20.158;2023-04-29T08:48:07;99925.14;;;19.07;38.80
55801;BME280;41730;51.960;20.158;2023-04-29T08:50:39;99923.14;;;19.22;38.72
55801;BME280;41730;51.960;20.158;2023-04-29T08:53:13;99920.20;;;19.39;38.50
55801;BME280;41730;51.960;20.158;2023-04-29T08:55:46;99916.90;;;19.38;38.25
55801;BME280;41730;51.960;20.158;2023-04-29T08:58:18;99920.45;;;19.26;37.98
55801;BME280;41730;51.960;20.158;2023-04-29T09:00:50;99923.35;;;19.22;37.65
55801;BME280;41730;51.960;20.158;2023-04-29T09:03:28;99917.95;;;19.19;37.50
55801;BME280;41730;51.960;20.158;2023-04-29T09:06:01;99914.27;;;19.15;38.06
55801;BME280;41730;51.960;20.158;2023-04-29T09:08:34;99915.50;;;19.33;37.90
55801;BME280;41730;51.960;20.158;2023-04-29T09:11:09;99916.15;;;19.55;37.78
55801;BME280;41730;51.960;20.158;2023-04-29T09:13:41;99918.64;;;19.52;37.88
55801;BME280;41730;51.960;20.158;2023-04-29T09:16:14;99921.14;;;19.44;37.74
55801;BME280;41730;51.960;20.158;2023-04-29T09:18:47;99923.39;;;19.21;37.95
55801;BME280;41730;51.960;20.158;2023-04-29T09:21:22;99925.54;;;19.03;38.22
55801;BME280;41730;51.960;20.158;2023-04-29T09:23:55;99927.42;;;18.99;38.37
55801;BME280;41730;51.960;20.158;2023-04-29T09:26:40;99930.13;;;19.03;38.23
55801;BME280;41730;51.960;20.158;2023-04-29T09:29:13;99929.05;;;19.17;38.17
55801;BME280;41730;51.960;20.158;2023-04-29T09:31:45;99929.78;;;19.20;38.33
55801;BME280;41730;51.960;20.158;2023-04-29T09:34:18;99930.84;;;19.07;38.18
55801;BME280;41730;51.960;20.158;2023-04-29T09:37:00;99926.42;;;18.94;38.75
55801;BME280;41730;51.960;20.158;2023-04-29T09:39:39;99923.96;;;18.94;38.94
55801;BME280;41730;51.960;20.158;2023-04-29T09:42:12;99921.59;;;19.13;38.75
55801;BME280;41730;51.960;20.158;2023-04-29T09:44:45;99921.13;;;19.24;38.83
55801;BME280;41730;51.960;20.158;2023-04-29T09:47:17;99918.33;;;19.32;38.85
55801;BME280;41730;51.960;20.158;2023-04-29T09:50:12;99919.14;;;19.40;39.01
55801;BME280;41730;51.960;20.158;2023-04-29T09:52:45;99913.73;;;19.59;38.30
55801;BME280;41730;51.960;20.158;2023-04-29T09:55:17;99912.48;;;19.67;37.79
55801;BME280;41730;51.960;20.158;2023-04-29T09:57:49;99916.09;;;19.69;37.92
55801;BME280;41730;51.960;20.158;2023-04-29T10:00:21;99915.41;;;19.61;38.05
55801;BME280;41730;51.960;20.158;2023-04-29T10:02:55;99912.66;;;19.60;38.27
55801;BME280;41730;51.960;20.158;2023-04-29T10:05:31;99911.08;;;19.70;38.48
55801;BME280;41730;51.960;20.158;2023-04-29T10:08:16;99918.42;;;19.91;38.15
55801;BME280;41730;51.960;20.158;2023-04-29T10:10:49;99909.50;;;20.08;37.69
55801;BME280;41730;51.960;20.158;2023-04-29T10:13:27;99906.28;;;20.05;37.41
55801;BME280;41730;51.960;20.158;2023-04-29T10:16:03;99903.19;;;20.02;37.01
55801;BME280;41730;51.960;20.158;2023-04-29T10:18:44;99893.69;;;19.81;37.42
55801;BME280;41730;51.960;20.158;2023-04-29T10:21:23;99887.34;;;19.64;37.81
55801;BME280;41730;51.960;20.158;2023-04-29T10:24:00;99896.02;;;19.70;38.07
55801;BME280;41730;51.960;20.158;2023-04-29T10:26:34;99893.66;;;19.64;38.15
55801;BME280;41730;51.960;20.158;2023-04-29T10:29:12;99889.52;;;19.59;38.37
55801;BME280;41730;51.960;20.158;2023-04-29T10:31:45;99891.84;;;19.56;38.63
55801;BME280;41730;51.960;20.158;2023-04-29T10:34:19;99893.16;;;19.54;37.82
55801;BME280;41730;51.960;20.158;2023-04-29T10:36:51;99891.55;;;19.63;37.63
55801;BME280;41730;51.960;20.158;2023-04-29T10:39:29;99890.45;;;19.83;37.17
55801;BME280;41730;51.960;20.158;2023-04-29T10:42:06;99888.11;;;19.77;37.38
55801;BME280;41730;51.960;20.158;2023-04-29T10:45:19;99886.48;;;19.71;37.44
55801;BME280;41730;51.960;20.158;2023-04-29T10:48:09;99880.17;;;19.68;37.05
55801;BME280;41730;51.960;20.158;2023-04-29T10:51:00;99888.45;;;19.55;37.13
55801;BME280;41730;51.960;20.158;2023-04-29T10:53:59;99883.05;;;19.41;37.14
55801;BME280;41730;51.960;20.158;2023-04-29T10:56:39;99881.54;;;19.42;37.77
55801;BME280;41730;51.960;20.158;2023-04-29T10:59:15;99879.95;;;19.55;38.09
55801;BME280;41730;51.960;20.158;2023-04-29T11:01:49;99874.73;;;19.64;37.72
55801;BME280;41730;51.960;20.158;2023-04-29T11:04:21;99879.75;;;19.80;37.48
55801;BME280;41730;51.960;20.158;2023-04-29T11:06:54;99877.88;;;20.08;36.48
55801;BME280;41730;51.960;20.158;2023-04-29T11:09:29;99876.88;;;20.19;36.53
55801;BME280;41730;51.960;20.158;2023-04-29T11:12:04;99880.23;;;20.27;36.07
55801;BME280;41730;51.960;20.158;2023-04-29T11:14:42;99871.66;;;20.31;35.97
55801;BME280;41730;51.960;20.158;2023-04-29T11:17:15;99866.86;;;20.23;36.43
55801;BME280;41730;51.960;20.158;2023-04-29T11:19:51;99864.03;;;20.34;36.59
55801;BME280;41730;51.960;20.158;2023-04-29T11:22:29;99864.73;;;20.41;36.35
55801;BME280;41730;51.960;20.158;2023-04-29T11:25:04;99865.47;;;20.34;36.72
55801;BME280;41730;51.960;20.158;2023-04-29T11:27:37;99861.05;;;20.35;36.82
55801;BME280;41730;51.960;20.158;2023-04-29T11:30:14;99863.27;;;20.26;36.68
55801;BME280;41730;51.960;20.158;2023-04-29T11:32:46;99870.64;;;20.15;36.73
55801;BME280;41730;51.960;20.158;2023-04-29T11:35:19;99863.13;;;20.23;36.81
55801;BME280;41730;51.960;20.158;2023-04-29T11:37:51;99865.98;;;20.27;36.58
55801;BME280;41730;51.960;20.158;2023-04-29T11:40:24;99861.46;;;20.18;36.67
55801;BME280;41730;51.960;20.158;2023-04-29T11:42:56;99861.16;;;20.06;36.97
55801;BME280;41730;51.960;20.158;2023-04-29T11:45:29;99859.20;;;20.03;37.08
55801;BME280;41730;51.960;20.158;2023-04-29T11:48:04;99855.39;;;19.96;37.18
55801;BME280;41730;51.960;20.158;2023-04-29T11:50:37;99853.57;;;19.86;37.47
55801;BME280;41730;51.960;20.158;2023-04-29T11:53:13;99849.16;;;19.83;37.68
55801;BME280;41730;51.960;20.158;2023-04-29T11:55:45;99846.31;;;19.87;37.65
55801;BME280;41730;51.960;20.158;2023-04-29T11:58:17;99849.48;;;19.90;37.91
55801;BME280;41730;51.960;20.158;2023-04-29T12:00:52;99841.28;;;19.85;38.18
55801;BME280;41730;51.960;20.158;2023-04-29T12:03:24;99843.58;;;20.07;37.95
55801;BME280;41730;51.960;20.158;2023-04-29T12:06:00;99841.28;;;20.24;37.85
55801;BME280;41730;51.960;20.158;2023-04-29T12:08:33;99835.09;;;20.40;37.35
55801;BME280;41730;51.960;20.158;2023-04-29T12:11:08;99838.61;;;20.27;37.40
55801;BME280;41730;51.960;20.158;2023-04-29T12:13:40;99839.25;;;20.31;37.52
55801;BME280;41730;51.960;20.158;2023-04-29T12:16:13;99839.45;;;20.39;37.22
55801;BME280;41730;51.960;20.158;2023-04-29T12:18:44;99839.02;;;20.26;37.41
55801;BME280;41730;51.960;20.158;2023-04-29T12:21:16;99839.52;;;20.08;37.64
55801;BME280;41730;51.960;20.158;2023-04-29T12:23:49;99841.30;;;20.03;37.73
55801;BME280;41730;51.960;20.158;2023-04-29T12:26:22;99840.91;;;20.05;37.90
55801;BME280;41730;51.960;20.158;2023-04-29T12:28:58;99840.45;;;20.07;37.76
55801;BME280;41730;51.960;20.158;2023-04-29T12:31:39;99837.94;;;20.21;37.81
55801;BME280;41730;51.960;20.158;2023-04-29T12:34:11;99837.56;;;20.21;37.62
55801;BME280;41730;51.960;20.158;2023-04-29T12:36:45;99835.02;;;20.18;37.82
55801;BME280;41730;51.960;20.158;2023-04-29T12:39:17;99836.10;;;20.28;37.90
55801;BME280;41730;51.960;20.158;2023-04-29T12:41:49;99832.27;;;20.33;37.92
55801;BME280;41730;51.960;20.158;2023-04-29T12:44:25;99830.98;;;20.26;37.84
55801;BME280;41730;51.960;20.158;2023-04-29T12:47:08;99827.30;;;20.04;38.30
55801;BME280;41730;51.960;20.158;2023-04-29T12:49:41;99826.08;;;20.06;38.23
55801;BME280;41730;51.960;20.158;2023-04-29T12:52:14;99825.70;;;19.96;38.58
55801;BME280;41730;51.960;20.158;2023-04-29T12:54:46;99827.22;;;19.81;38.89
55801;BME280;41730;51.960;20.158;2023-04-29T12:57:18;99825.01;;;19.61;39.35
55801;BME280;41730;51.960;20.158;2023-04-29T12:59:51;99823.52;;;19.58;39.61
55801;BME280;41730;51.960;20.158;2023-04-29T13:02:22;99823.23;;;19.73;39.39
55801;BME280;41730;51.960;20.158;2023-04-29T13:04:56;99824.70;;;19.78;39.29
55801;BME280;41730;51.960;20.158;2023-04-29T13:07:29;99820.13;;;19.81;39.37
55801;BME280;41730;51.960;20.158;2023-04-29T13:10:01;99818.88;;;19.95;39.25
55801;BME280;41730;51.960;20.158;2023-04-29T13:12:35;99818.49;;;19.84;39.31
55801;BME280;41730;51.960;20.158;2023-04-29T13:15:09;99821.24;;;19.76;39.50
55801;BME280;41730;51.960;20.158;2023-04-29T13:17:41;99816.51;;;19.87;39.34
55801;BME280;41730;51.960;20.158;2023-04-29T13:20:14;99818.50;;;19.85;39.14
55801;BME280;41730;51.960;20.158;2023-04-29T13:22:46;99815.58;;;19.76;39.09
55801;BME280;41730;51.960;20.158;2023-04-29T13:25:21;99819.58;;;19.68;39.39